createdAt,value
2023-10-23T00:02:14.302Z,9.25
2023-10-23T00:04:41.222Z,7.00
2023-10-23T00:07:08.031Z,7.50
2023-10-23T00:09:34.666Z,7.25
2023-10-23T00:12:01.366Z,8.00
2023-10-23T00:14:28.089Z,7.00
2023-10-23T00:16:54.790Z,7.00
2023-10-23T00:19:22.805Z,7.75
2023-10-23T00:21:49.428Z,8.25
2023-10-23T00:24:15.960Z,9.25
2023-10-23T00:26:42.603Z,9.75
2023-10-23T00:29:09.571Z,9.50
2023-10-23T00:31:36.207Z,10.00
2023-10-23T00:34:03.569Z,10.50
2023-10-23T00:36:30.187Z,9.00
2023-10-23T00:38:56.879Z,12.25
2023-10-23T00:41:24.018Z,10.00
2023-10-23T00:43:50.496Z,10.50
2023-10-23T00:46:23.961Z,12.25
2023-10-23T00:48:52.075Z,12.25
2023-10-23T00:51:18.881Z,14.00
2023-10-23T00:53:45.634Z,11.00
2023-10-23T00:56:12.938Z,13.25
2023-10-23T00:58:40.737Z,11.00
2023-10-23T01:01:07.890Z,13.00
2023-10-23T01:03:34.551Z,13.25
2023-10-23T01:06:01.065Z,13.75
2023-10-23T01:08:28.038Z,13.00
2023-10-23T01:10:56.906Z,13.00
2023-10-23T01:13:25.949Z,13.25
2023-10-23T01:15:52.507Z,11.75
2023-10-23T01:18:19.229Z,10.75
2023-10-23T01:20:46.456Z,12.75
2023-10-23T01:23:13.216Z,12.50
2023-10-23T01:25:39.751Z,13.25
2023-10-23T01:28:06.708Z,14.00
2023-10-23T01:30:33.563Z,14.00
2023-10-23T01:33:00.255Z,11.00
2023-10-23T01:35:26.854Z,12.75
2023-10-23T01:37:53.607Z,15.00
2023-10-23T01:40:20.593Z,13.25
2023-10-23T01:42:50.534Z,11.25
2023-10-23T01:45:17.369Z,13.00
2023-10-23T01:47:44.101Z,12.00
2023-10-23T01:50:10.867Z,13.50
2023-10-23T01:52:37.538Z,10.00
2023-10-23T01:55:04.556Z,11.00
2023-10-23T01:57:31.154Z,11.25
2023-10-23T02:00:05.455Z,11.50
2023-10-23T02:02:32.906Z,13.00
2023-10-23T02:04:59.472Z,13.00
2023-10-23T02:07:26.332Z,12.00
2023-10-23T02:09:53.435Z,12.50
2023-10-23T02:12:20.178Z,11.75
2023-10-23T02:14:46.733Z,12.00
2023-10-23T02:17:13.268Z,9.00
2023-10-23T02:19:39.879Z,13.00
2023-10-23T02:22:06.981Z,11.25
2023-10-23T02:24:33.845Z,11.00
2023-10-23T02:27:00.708Z,14.00
2023-10-23T02:29:27.133Z,11.25
2023-10-23T02:31:53.658Z,10.75
2023-10-23T02:34:20.144Z,13.00
2023-10-23T02:36:47.415Z,11.25
2023-10-23T02:39:14.032Z,13.00
2023-10-23T02:41:40.688Z,12.00
2023-10-23T02:44:07.623Z,12.50
2023-10-23T02:46:36.937Z,12.00
2023-10-23T02:49:04.216Z,12.00
2023-10-23T02:51:30.927Z,13.50
2023-10-23T02:53:57.470Z,10.00
2023-10-23T02:56:24.028Z,11.50
2023-10-23T02:58:50.626Z,11.25
2023-10-23T03:01:22.140Z,12.75
2023-10-23T03:03:49.269Z,9.75
2023-10-23T03:06:16.071Z,11.50
2023-10-23T03:08:42.935Z,12.25
2023-10-23T03:11:09.424Z,10.75
2023-10-23T03:13:36.187Z,10.00
2023-10-23T03:16:02.977Z,11.00
2023-10-23T03:18:29.954Z,12.00
2023-10-23T03:21:00.575Z,12.00
2023-10-23T03:23:28.809Z,13.00
2023-10-23T03:25:55.542Z,12.75
2023-10-23T03:28:22.437Z,10.25
2023-10-23T03:30:49.856Z,11.50
2023-10-23T03:33:16.421Z,13.00
2023-10-23T03:35:46.489Z,12.75
2023-10-23T03:38:13.967Z,13.00
2023-10-23T03:40:40.654Z,12.00
2023-10-23T03:43:07.378Z,12.25
2023-10-23T03:45:38.170Z,13.25
2023-10-23T03:48:05.073Z,12.00
2023-10-23T03:50:31.952Z,11.25
2023-10-23T03:52:59.293Z,12.75
2023-10-23T03:55:26.115Z,13.00
2023-10-23T03:57:52.868Z,13.00
2023-10-23T04:00:19.561Z,14.00
2023-10-23T04:02:47.200Z,10.25
2023-10-23T04:05:14.318Z,15.00
2023-10-23T04:07:40.986Z,12.50
2023-10-23T04:10:08.915Z,13.00
2023-10-23T04:12:35.977Z,12.00
2023-10-23T04:15:03.164Z,12.00
2023-10-23T04:17:30.310Z,12.00
2023-10-23T04:19:57.094Z,11.00
2023-10-23T04:22:23.756Z,12.25
2023-10-23T04:24:50.652Z,11.75
2023-10-23T04:27:17.119Z,14.00
2023-10-23T04:29:43.606Z,12.25
2023-10-23T04:32:10.156Z,12.00
2023-10-23T04:34:36.633Z,11.50
2023-10-23T04:37:04.405Z,11.00
2023-10-23T04:39:31.094Z,12.00
2023-10-23T04:41:57.666Z,14.75
2023-10-23T04:44:24.155Z,12.50
2023-10-23T04:46:50.706Z,11.00
2023-10-23T04:49:17.262Z,12.75
2023-10-23T04:51:43.984Z,16.00
2023-10-23T04:54:10.743Z,18.25
2023-10-23T04:56:37.281Z,17.00
2023-10-23T04:59:04.255Z,10.75
2023-10-23T05:01:30.812Z,18.75
2023-10-23T05:03:57.773Z,16.00
2023-10-23T05:06:27.324Z,3.25
2023-10-23T05:08:54.376Z,12.25
2023-10-23T05:11:21.028Z,13.50
2023-10-23T05:13:47.614Z,14.50
2023-10-23T05:16:14.534Z,13.67
2023-10-23T05:18:41.734Z,12.75
2023-10-23T05:21:08.999Z,13.00
2023-10-23T05:23:35.942Z,12.25
2023-10-23T05:26:02.919Z,11.75
2023-10-23T05:28:29.645Z,16.50
2023-10-23T05:30:56.282Z,15.25
2023-10-23T05:33:22.912Z,12.50
2023-10-23T05:35:49.539Z,13.00
2023-10-23T05:38:16.110Z,13.00
2023-10-23T05:40:42.814Z,15.25
2023-10-23T05:43:09.724Z,18.75
2023-10-23T05:45:39.357Z,18.25
2023-10-23T05:48:06.154Z,19.00
2023-10-23T05:50:32.874Z,17.00
2023-10-23T05:52:59.936Z,17.50
2023-10-23T05:55:26.671Z,17.75
2023-10-23T05:57:53.675Z,16.00
2023-10-23T06:00:20.281Z,17.75
2023-10-23T06:02:47.279Z,17.50
2023-10-23T06:05:14.116Z,15.75
2023-10-23T06:07:40.856Z,15.00
2023-10-23T06:10:07.751Z,14.00
2023-10-23T06:12:34.569Z,11.50
2023-10-23T06:15:01.199Z,10.25
2023-10-23T06:17:27.779Z,8.75
2023-10-23T06:19:54.936Z,10.75
2023-10-23T06:22:21.547Z,11.00
2023-10-23T06:24:48.531Z,13.00
2023-10-23T06:27:15.066Z,9.00
2023-10-23T06:29:41.757Z,9.25
2023-10-23T06:32:08.387Z,12.00
2023-10-23T06:34:35.077Z,11.00
2023-10-23T06:37:01.624Z,12.50
2023-10-23T06:39:28.279Z,13.75
2023-10-23T06:41:54.830Z,13.25
2023-10-23T06:44:22.024Z,12.00
2023-10-23T06:46:48.644Z,11.75
2023-10-23T06:49:15.348Z,10.00
2023-10-23T06:51:42.624Z,9.00
2023-10-23T06:54:09.470Z,11.00
2023-10-23T06:56:36.318Z,11.00
2023-10-23T06:59:03.244Z,10.00
2023-10-23T07:01:38.186Z,11.50
2023-10-23T07:04:08.775Z,14.00
2023-10-23T07:06:35.444Z,15.75
2023-10-23T07:09:02.169Z,15.75
2023-10-23T07:11:28.813Z,20.00
2023-10-23T07:13:55.454Z,26.00
2023-10-23T07:16:22.092Z,33.00
2023-10-23T07:18:48.957Z,26.25
2023-10-23T07:21:16.425Z,33.00
2023-10-23T07:23:43.321Z,23.75
2023-10-23T07:26:14.279Z,24.75
2023-10-23T07:28:41.822Z,15.25
2023-10-23T07:31:09.584Z,15.25
2023-10-23T07:33:36.432Z,15.00
2023-10-23T07:36:03.986Z,10.25
2023-10-23T07:38:31.286Z,11.75
2023-10-23T07:40:59.310Z,9.25
2023-10-23T07:43:29.694Z,10.00
2023-10-23T07:46:12.148Z,9.75
2023-10-23T07:48:42.881Z,8.25
2023-10-23T07:51:09.791Z,11.75
2023-10-23T07:53:39.299Z,18.25
2023-10-23T07:56:06.363Z,17.00
2023-10-23T07:58:33.175Z,18.00
2023-10-23T08:01:10.157Z,17.00
2023-10-23T08:03:37.452Z,9.25
2023-10-23T08:06:05.228Z,10.00
2023-10-23T08:08:32.706Z,14.50
2023-10-23T08:10:59.377Z,14.00
2023-10-23T08:13:26.321Z,14.50
2023-10-23T08:15:54.006Z,10.75
2023-10-23T08:18:36.506Z,11.00
2023-10-23T08:21:08.809Z,9.50
2023-10-23T08:23:35.745Z,10.50
2023-10-23T08:26:02.299Z,9.00
2023-10-23T08:28:35.070Z,7.75
2023-10-23T08:31:13.995Z,8.75
2023-10-23T08:33:47.785Z,7.25
2023-10-23T08:36:14.533Z,6.75
2023-10-23T08:41:32.719Z,6.00
2023-10-23T08:43:59.974Z,8.50
2023-10-23T08:46:27.752Z,7.00
2023-10-23T08:48:55.330Z,8.75
2023-10-23T08:51:22.310Z,8.25
2023-10-23T08:54:09.532Z,7.25
2023-10-23T08:56:38.883Z,6.50
2023-10-23T08:59:06.099Z,5.25
2023-10-23T09:01:36.907Z,6.75
2023-10-23T09:04:07.828Z,8.50
2023-10-23T09:06:35.278Z,6.50
2023-10-23T09:09:03.053Z,9.00
2023-10-23T09:11:45.363Z,7.50
2023-10-23T09:14:22.130Z,7.00
2023-10-23T09:16:49.279Z,9.25
2023-10-23T09:19:24.088Z,7.00
2023-10-23T09:21:53.440Z,8.00
2023-10-23T09:24:20.651Z,7.00
2023-10-23T09:26:48.214Z,7.25
2023-10-23T09:29:14.888Z,6.50
2023-10-23T09:31:44.439Z,5.00
2023-10-23T09:34:12.226Z,8.00
2023-10-23T09:36:39.050Z,8.00
2023-10-23T09:39:05.584Z,5.75
2023-10-23T09:41:33.451Z,7.67
2023-10-23T09:44:02.029Z,5.50
2023-10-23T09:46:29.720Z,5.50
2023-10-23T09:49:01.412Z,5.00
2023-10-23T09:51:38.061Z,6.40
2023-10-23T09:54:11.271Z,8.25
2023-10-23T09:56:39.882Z,6.25
2023-10-23T09:59:09.543Z,10.00
2023-10-23T10:01:37.676Z,6.00
2023-10-23T10:04:15.180Z,7.00
2023-10-23T10:06:49.872Z,6.00
2023-10-23T10:09:17.276Z,5.00
2023-10-23T10:11:47.062Z,4.80
2023-10-23T10:14:15.157Z,5.25
2023-10-23T10:16:42.844Z,5.00
2023-10-23T10:19:09.697Z,5.20
2023-10-23T10:21:39.731Z,5.00
2023-10-23T10:24:06.559Z,5.25
2023-10-23T10:26:34.727Z,5.25
2023-10-23T10:29:01.327Z,6.00
2023-10-23T10:31:28.619Z,5.75
2023-10-23T10:34:25.136Z,6.50
2023-10-23T10:36:45.765Z,9.00
2023-10-23T10:39:14.690Z,6.00
2023-10-23T10:41:41.366Z,8.00
2023-10-23T10:44:14.001Z,8.25
2023-10-23T10:46:41.007Z,6.50
2023-10-23T10:49:07.835Z,7.00
2023-10-23T10:51:35.537Z,6.25
2023-10-23T10:54:09.350Z,6.50
2023-10-23T10:56:36.023Z,7.50
2023-10-23T10:59:03.656Z,10.50
2023-10-23T11:01:30.912Z,13.25
2023-10-23T11:03:57.944Z,14.75
2023-10-23T11:06:24.998Z,7.25
2023-10-23T11:08:52.126Z,17.00
2023-10-23T11:11:18.951Z,18.50
2023-10-23T11:13:45.525Z,17.25
2023-10-23T11:16:12.284Z,8.75
2023-10-23T11:18:39.018Z,8.50
2023-10-23T11:21:06.569Z,7.25
2023-10-23T11:23:33.187Z,8.50
2023-10-23T11:25:59.826Z,5.75
2023-10-23T11:28:26.458Z,7.75
2023-10-23T11:30:57.371Z,4.00
2023-10-23T11:33:24.030Z,6.50
2023-10-23T11:35:50.508Z,4.60
2023-10-23T11:38:21.394Z,4.20
2023-10-23T11:40:48.106Z,5.00
2023-10-23T11:43:17.124Z,5.25
2023-10-23T11:45:46.447Z,6.50
2023-10-23T11:48:13.530Z,5.75
2023-10-23T11:50:43.647Z,4.20
2023-10-23T11:53:10.237Z,4.75
2023-10-23T11:55:37.400Z,3.60
2023-10-23T11:58:05.062Z,5.00
2023-10-23T12:00:32.826Z,6.00
2023-10-23T12:02:59.808Z,4.00
2023-10-23T12:05:26.590Z,5.00
2023-10-23T12:07:56.715Z,7.00
2023-10-23T12:10:25.985Z,4.50
2023-10-23T12:12:54.186Z,6.25
2023-10-23T12:15:21.447Z,1.75
2023-10-23T12:17:47.943Z,5.80
2023-10-23T12:20:15.550Z,6.00
2023-10-23T12:22:43.057Z,6.75
2023-10-23T12:25:10.740Z,6.25
2023-10-23T12:27:37.445Z,8.50
2023-10-23T12:30:07.248Z,7.00
2023-10-23T12:33:15.667Z,5.50
2023-10-23T12:35:22.700Z,10.50
2023-10-23T12:37:49.297Z,5.00
2023-10-23T12:40:15.828Z,4.00
2023-10-23T12:42:42.298Z,4.00
2023-10-23T12:45:09.385Z,4.00
2023-10-23T12:47:36.324Z,5.00
2023-10-23T12:50:04.875Z,3.20
2023-10-23T12:52:31.562Z,4.00
2023-10-23T12:54:58.117Z,3.00
2023-10-23T12:57:24.676Z,3.80
2023-10-23T12:59:51.175Z,4.00
2023-10-23T13:02:17.749Z,4.75
2023-10-23T13:04:46.085Z,5.00
2023-10-23T13:07:14.723Z,4.25
2023-10-23T13:09:41.634Z,5.00
2023-10-23T13:12:08.307Z,6.00
2023-10-23T13:14:34.794Z,6.00
2023-10-23T13:17:01.313Z,4.25
2023-10-23T13:19:27.877Z,8.00
2023-10-23T13:21:54.382Z,3.20
2023-10-23T13:24:20.928Z,1.00
2023-10-23T13:26:47.422Z,3.00
2023-10-23T13:29:13.882Z,3.00
2023-10-23T13:31:40.566Z,3.00
2023-10-23T13:34:07.171Z,4.00
2023-10-23T13:36:33.653Z,5.00
2023-10-23T13:39:04.626Z,3.00
2023-10-23T13:41:31.302Z,5.00
2023-10-23T13:43:57.779Z,3.00
2023-10-23T13:46:24.440Z,2.00
2023-10-23T13:48:50.951Z,5.00
2023-10-23T13:51:17.446Z,4.75
2023-10-23T13:53:45.521Z,5.00
2023-10-23T13:56:11.975Z,5.25
2023-10-23T13:58:39.243Z,6.00
2023-10-23T14:01:05.981Z,6.50
2023-10-23T14:03:33.050Z,6.00
2023-10-23T14:05:59.826Z,7.25
2023-10-23T14:09:18.771Z,7.00
2023-10-23T14:12:00.319Z,11.50
2023-10-23T14:13:59.846Z,6.50
2023-10-23T14:16:27.265Z,3.25
2023-10-23T14:18:53.746Z,6.25
2023-10-23T14:21:20.200Z,6.25
2023-10-23T14:23:47.194Z,7.75
2023-10-23T14:26:14.648Z,7.00
2023-10-23T14:28:41.824Z,6.75
2023-10-23T14:31:08.354Z,6.00
2023-10-23T14:33:34.949Z,7.00
2023-10-23T14:36:01.469Z,10.75
2023-10-23T14:38:28.120Z,7.75
2023-10-23T14:40:55.138Z,6.00
2023-10-23T14:43:22.128Z,7.00
2023-10-23T14:45:52.811Z,6.00
2023-10-23T14:48:21.788Z,7.00
2023-10-23T14:50:51.737Z,7.50
2023-10-23T14:53:18.439Z,10.00
2023-10-23T14:55:44.936Z,11.25
2023-10-23T14:58:11.566Z,11.25
2023-10-23T15:00:41.835Z,10.50
2023-10-23T15:03:08.460Z,12.00
2023-10-23T15:05:35.018Z,12.00
2023-10-23T15:08:01.906Z,14.00
2023-10-23T15:10:28.443Z,10.50
2023-10-23T15:12:55.045Z,11.75
2023-10-23T15:15:24.345Z,18.50
2023-10-23T15:17:50.916Z,14.50
2023-10-23T15:20:17.396Z,11.00
2023-10-23T15:22:43.923Z,13.00
2023-10-23T15:25:10.969Z,13.50
2023-10-23T15:27:39.834Z,17.75
2023-10-23T15:30:06.711Z,19.75
2023-10-23T15:32:33.296Z,17.00
2023-10-23T15:35:00.197Z,16.50
2023-10-23T15:37:27.162Z,16.00
2023-10-23T15:39:53.768Z,15.00
2023-10-23T15:42:20.328Z,18.50
2023-10-23T15:44:47.194Z,17.25
2023-10-23T15:47:14.668Z,19.00
2023-10-23T15:49:41.468Z,18.50
2023-10-23T15:52:08.292Z,17.25
2023-10-23T15:54:35.332Z,19.00
2023-10-23T15:57:02.193Z,18.00
2023-10-23T15:59:30.031Z,25.00
2023-10-23T16:01:56.743Z,32.50
2023-10-23T16:04:23.471Z,24.00
2023-10-23T16:06:51.241Z,28.25
2023-10-23T16:09:22.139Z,21.75
2023-10-23T16:11:55.558Z,26.25
2023-10-23T16:14:25.748Z,37.25
2023-10-23T16:16:52.979Z,38.00
2023-10-23T16:19:19.564Z,42.00
2023-10-23T16:21:46.057Z,37.00
2023-10-23T16:24:12.578Z,32.75
2023-10-23T16:26:39.075Z,30.50
2023-10-23T16:29:05.509Z,29.33
2023-10-23T16:31:32.347Z,43.75
2023-10-23T16:33:59.046Z,48.50
2023-10-23T16:36:25.632Z,44.50
2023-10-23T16:38:52.056Z,45.50
2023-10-23T16:41:18.618Z,43.00
2023-10-23T16:43:45.151Z,42.75
2023-10-23T16:46:13.095Z,41.25
2023-10-23T16:48:39.940Z,38.00
2023-10-23T16:51:06.550Z,39.75
2023-10-23T16:53:35.452Z,39.00
2023-10-23T16:56:02.053Z,37.50
2023-10-23T16:58:28.702Z,38.00
2023-10-23T17:00:55.365Z,27.25
2023-10-23T17:03:23.421Z,36.25
2023-10-23T17:05:50.120Z,34.50
2023-10-23T17:08:16.667Z,36.00
2023-10-23T17:10:43.436Z,33.75
2023-10-23T17:13:10.062Z,33.50
2023-10-23T17:15:41.491Z,33.50
2023-10-23T17:18:08.019Z,36.75
2023-10-23T17:20:38.675Z,34.25
2023-10-23T17:23:05.106Z,27.75
2023-10-23T17:25:31.552Z,32.00
2023-10-23T17:27:58.008Z,35.00
2023-10-23T17:30:24.564Z,31.00
2023-10-23T17:32:51.100Z,28.67
2023-10-23T17:35:17.893Z,32.75
2023-10-23T17:37:44.408Z,34.75
2023-10-23T17:40:12.179Z,32.00
2023-10-23T17:42:38.972Z,33.00
2023-10-23T17:45:05.889Z,30.25
2023-10-23T17:47:32.617Z,27.33
2023-10-23T17:49:59.167Z,29.00
2023-10-23T17:52:25.917Z,29.50
2023-10-23T17:54:52.614Z,29.00
2023-10-23T17:57:21.104Z,13.00
2023-10-23T17:59:47.838Z,34.00
2023-10-23T18:02:14.481Z,34.25
2023-10-23T18:04:41.184Z,32.50
2023-10-23T18:07:07.696Z,33.00
2023-10-23T18:09:34.295Z,34.75
2023-10-23T18:12:02.045Z,36.50
2023-10-23T18:14:28.690Z,40.00
2023-10-23T18:16:56.443Z,36.75
2023-10-23T18:19:22.979Z,37.25
2023-10-23T18:21:49.495Z,34.00
2023-10-23T18:24:16.719Z,35.25
2023-10-23T18:26:43.243Z,35.75
2023-10-23T18:29:09.889Z,36.00
2023-10-23T18:31:37.456Z,35.50
2023-10-23T18:34:05.157Z,38.25
2023-10-23T18:36:35.575Z,36.00
2023-10-23T18:39:04.032Z,35.25
2023-10-23T18:41:30.811Z,32.75
2023-10-23T18:43:57.594Z,34.75
2023-10-23T18:46:24.587Z,0.00
2023-10-23T18:48:51.300Z,35.75
2023-10-23T18:51:19.059Z,34.50
2023-10-23T18:53:45.757Z,34.00
2023-10-23T18:56:12.640Z,33.75
2023-10-23T18:58:39.309Z,30.75
2023-10-23T19:01:09.627Z,30.75
2023-10-23T19:03:37.033Z,34.25
2023-10-23T19:06:03.818Z,36.50
2023-10-23T19:08:32.514Z,37.00
2023-10-23T19:11:02.493Z,49.25
2023-10-23T19:13:29.200Z,65.25
2023-10-23T19:15:59.624Z,51.75
2023-10-23T19:18:30.154Z,65.50
2023-10-23T19:21:06.499Z,58.75
2023-10-23T19:23:33.135Z,50.75
2023-10-23T19:25:59.666Z,54.25
2023-10-23T19:28:26.599Z,61.25
2023-10-23T19:30:53.548Z,52.50
2023-10-23T19:33:20.223Z,54.50
2023-10-23T19:35:46.895Z,59.75
2023-10-23T19:38:13.681Z,62.25
2023-10-23T19:40:51.817Z,70.75
2023-10-23T19:43:19.184Z,75.50
2023-10-23T19:45:45.851Z,41.00
2023-10-23T19:48:13.272Z,74.00
2023-10-23T19:50:43.842Z,77.00
2023-10-23T19:53:11.440Z,71.00
2023-10-23T19:55:44.618Z,67.50
2023-10-23T19:58:13.938Z,70.75
2023-10-23T20:00:40.685Z,65.25
2023-10-23T20:03:07.449Z,64.50
2023-10-23T20:05:34.889Z,67.75
2023-10-23T20:08:02.307Z,66.25
2023-10-23T20:10:29.868Z,59.50
2023-10-23T20:12:58.389Z,55.00
2023-10-23T20:15:28.068Z,57.00
2023-10-23T20:17:56.117Z,55.25
2023-10-23T20:20:23.514Z,45.00
2023-10-23T20:22:50.813Z,51.00
2023-10-23T20:25:17.864Z,50.25
2023-10-23T20:27:44.469Z,45.00
2023-10-23T20:30:11.570Z,51.75
2023-10-23T20:32:38.148Z,53.25
2023-10-23T20:35:05.480Z,50.25
2023-10-23T20:37:35.251Z,50.75
2023-10-23T20:40:02.358Z,45.00
2023-10-23T20:42:31.660Z,48.00
2023-10-23T20:44:58.619Z,46.00
2023-10-23T20:47:25.121Z,46.75
2023-10-23T20:49:51.595Z,46.00
2023-10-23T20:52:18.080Z,43.25
2023-10-23T20:54:44.680Z,42.50
2023-10-23T20:57:11.171Z,48.75
2023-10-23T20:59:37.742Z,58.25
2023-10-23T21:02:04.532Z,60.50
2023-10-23T21:04:31.096Z,52.25
2023-10-23T21:06:57.664Z,51.00
2023-10-23T21:09:24.950Z,52.25
2023-10-23T21:11:51.462Z,53.00
2023-10-23T21:14:17.951Z,55.50
2023-10-23T21:16:44.513Z,58.75
2023-10-23T21:19:11.364Z,63.75
2023-10-23T21:21:38.972Z,60.25
2023-10-23T21:24:05.643Z,60.25
2023-10-23T21:26:33.100Z,70.00
2023-10-23T21:29:21.532Z,68.67
2023-10-23T21:31:48.880Z,96.67
2023-10-23T21:34:16.596Z,96.00
2023-10-23T21:36:43.453Z,97.33
2023-10-23T21:39:12.865Z,98.00
2023-10-23T21:41:39.963Z,91.67
2023-10-23T21:44:06.759Z,85.33
2023-10-23T21:46:33.476Z,73.33
2023-10-23T21:49:03.703Z,83.67
2023-10-23T21:51:30.528Z,80.33
2023-10-23T21:53:57.718Z,81.67
2023-10-23T21:57:15.157Z,75.00
2023-10-23T21:59:12.469Z,69.50
2023-10-23T22:01:40.888Z,65.00
2023-10-23T22:04:08.316Z,42.50
2023-10-23T22:06:34.980Z,52.50
2023-10-23T22:09:02.659Z,53.25
2023-10-23T22:11:29.424Z,54.00
2023-10-23T22:13:56.089Z,55.00
2023-10-23T22:16:23.316Z,47.75
2023-10-23T22:18:51.408Z,46.50
2023-10-23T22:21:18.075Z,46.00
2023-10-23T22:23:44.622Z,42.00
2023-10-23T22:26:11.336Z,40.25
2023-10-23T22:28:37.963Z,44.25
2023-10-23T22:31:05.105Z,42.00
2023-10-23T22:33:32.227Z,41.00
2023-10-23T22:35:58.834Z,39.50
2023-10-23T22:38:25.321Z,41.25
2023-10-23T22:40:52.393Z,41.25
2023-10-23T22:43:18.844Z,40.25
2023-10-23T22:45:55.735Z,38.50
2023-10-23T22:48:28.639Z,38.50
2023-10-23T22:50:55.534Z,39.50
2023-10-23T22:53:23.455Z,36.75
2023-10-23T22:55:53.233Z,29.25
2023-10-23T22:58:20.871Z,37.75
2023-10-23T23:00:47.752Z,38.00
2023-10-23T23:03:14.498Z,38.00
2023-10-23T23:05:43.910Z,37.00
2023-10-23T23:08:13.055Z,36.50
2023-10-23T23:10:39.746Z,37.00
2023-10-23T23:13:06.471Z,33.75
2023-10-23T23:15:34.208Z,33.50
2023-10-23T23:18:03.032Z,33.50
2023-10-23T23:20:31.920Z,32.25
2023-10-23T23:22:58.428Z,35.25
2023-10-23T23:25:25.001Z,1.00
2023-10-23T23:27:51.556Z,33.75
2023-10-23T23:30:18.117Z,35.50
2023-10-23T23:32:44.656Z,33.50
2023-10-23T23:35:11.244Z,34.00
2023-10-23T23:37:37.937Z,33.00
2023-10-23T23:40:05.509Z,31.75
2023-10-23T23:42:32.307Z,35.00
2023-10-23T23:44:58.860Z,32.25
2023-10-23T23:47:25.628Z,31.75
2023-10-23T23:49:53.386Z,31.00
2023-10-23T23:52:20.096Z,29.75
2023-10-23T23:54:46.672Z,31.00
2023-10-23T23:57:13.205Z,31.25
2023-10-23T23:59:39.761Z,32.00
